Hutchinson, KS (67501)

1:49 PM CDT on August 31, 2015 (GMT -0500)
KKSHUTCH9 | | Change Station
CLOSE
Current Station
Personal Weather Station
Location: Hutchinson, KS
Elevation: 1549 ft
Nearby Weather Stations

Elev 1549 ft 38.08 °N, 97.92 °W | Updated 7 seconds ago

Clear
Clear
93.2 °F
Feels Like 96 °F
N
6.9
Wind Variable Wind from SE
Gusts 11.4 mph

Today
High -- | Low -- °F
--% Chance of Precip.
Yesterday
High -- | Low -- °F
Precip. -- in
7:00 AM 8:02 PM
Waning Gibbous, 94% visible
Pressure 29.88 in
Visibility 10.0 miles
Clouds Clear
Heat Index 96 °F
Dew Point 65 °F
Humidity 40%
Rainfall 0.00 in
Snow Depth Not available.
UV 10 out of 12
Pollen 11.10 out of 12
Air Quality Not available.
Flu Activity Not available.
METAR KHUT 311752Z 17009KT 10SM CLR 31/19 A2995 RMK AO2 SLP118 T03110194 10317 20194 58007
Pressure 29.88 in
Visibility 10.0 miles
Clouds Clear
Heat Index 96 °F
Dew Point 65 °F
Humidity 40%
Rainfall 0.00 in
Snow Depth Not available.
UV 10 out of 12
Pollen 11.10 out of 12
Air Quality Not available.
Flu Activity Not available.
METAR KHUT 311752Z 17009KT 10SM CLR 31/19 A2995 RMK AO2 SLP118 T03110194 10317 20194 58007

10-Day Weather Forecast

×

Almanac

Astronomy

Aug. 31, 2015 Rise Set
Actual Time
Civil Twilight
Nautical Twilight
Astronomical Twilight
Moon
Length of Visible Light
Length of Day
Tomorrow will be .
, % of the Moon is Illuminated

Today's Extremes

State Highs State Lows

Community

WunderPhotos

Upload Photos

1,851,334 photos uploaded!

WunderBlogs® & News

Nearby

Air Quality

  Air Quality AQ Index Pollutant
Not available.

Snow Depth

Station Depth Elevation

Earthquake Activity

City Distance Mag. Time & Date
Minimum magnitude displayed is 2.5.

Coastal Water Temperatures

Place Temperature

Stations

Nearby Weather Stations

Station Location Temp. Windchill Dew Point Humidity Wind Precip. Elev Updated Type